createdAt,value
2023-05-23T00:00:03.999Z,45.59
2023-05-23T00:01:03.974Z,43.41
2023-05-23T00:02:03.968Z,45.55
2023-05-23T00:03:04.011Z,44.80
2023-05-23T00:04:03.992Z,50.46
2023-05-23T00:05:03.936Z,48.64
2023-05-23T00:06:03.920Z,46.77
2023-05-23T00:07:03.913Z,42.30
2023-05-23T00:08:35.926Z,46.73
2023-05-23T00:09:03.900Z,40.20
2023-05-23T00:10:03.901Z,40.70
2023-05-23T00:11:03.896Z,41.68
2023-05-23T00:12:03.883Z,53.02
2023-05-23T00:13:03.919Z,44.37
2023-05-23T00:14:03.890Z,42.12
2023-05-23T00:15:03.874Z,47.49
2023-05-23T00:16:03.858Z,40.36
2023-05-23T00:17:03.925Z,46.46
2023-05-23T00:18:03.867Z,52.94
2023-05-23T00:19:03.870Z,46.80
2023-05-23T00:20:03.825Z,42.48
2023-05-23T00:21:03.817Z,40.09
2023-05-23T00:22:04.829Z,44.47
2023-05-23T00:23:03.830Z,53.77
2023-05-23T00:24:03.868Z,41.85
2023-05-23T00:25:03.781Z,48.56
2023-05-23T00:26:03.795Z,40.31
2023-05-23T00:27:03.800Z,50.50
2023-05-23T00:28:03.794Z,47.93
2023-05-23T00:29:03.753Z,42.90
2023-05-23T00:30:03.758Z,55.18
2023-05-23T00:31:03.762Z,42.45
2023-05-23T00:32:03.754Z,40.70
2023-05-23T00:33:03.750Z,43.04
2023-05-23T00:34:03.711Z,41.48
2023-05-23T00:35:03.729Z,40.22
2023-05-23T00:36:03.705Z,44.92
2023-05-23T00:37:03.728Z,45.18
2023-05-23T00:38:03.688Z,43.11
2023-05-23T00:39:03.679Z,48.40
2023-05-23T00:40:03.747Z,49.12
2023-05-23T00:41:03.676Z,43.74
2023-05-23T00:42:03.681Z,44.52
2023-05-23T00:43:03.647Z,46.11
2023-05-23T00:44:03.632Z,46.18
2023-05-23T00:45:03.650Z,50.28
2023-05-23T00:46:03.682Z,44.08
2023-05-23T00:47:03.645Z,43.65
2023-05-23T00:48:03.662Z,49.27
2023-05-23T00:49:03.613Z,48.29
2023-05-23T00:50:03.599Z,55.15
2023-05-23T00:51:03.832Z,47.74
2023-05-23T00:52:03.577Z,47.37
2023-05-23T00:53:03.569Z,47.38
2023-05-23T00:54:03.560Z,48.09
2023-05-23T00:55:03.571Z,55.21
2023-05-23T00:56:03.662Z,47.08
2023-05-23T00:57:03.549Z,41.46
2023-05-23T00:58:03.532Z,41.88
2023-05-23T00:59:03.527Z,54.67
2023-05-23T01:00:03.549Z,47.13
2023-05-23T01:01:03.542Z,44.04
2023-05-23T01:02:03.537Z,48.80
2023-05-23T01:03:03.525Z,54.15
2023-05-23T01:04:03.526Z,45.09
2023-05-23T01:05:03.529Z,40.93
2023-05-23T01:06:03.483Z,49.28
2023-05-23T01:07:03.468Z,48.70
2023-05-23T01:08:03.472Z,40.25
2023-05-23T01:09:03.458Z,45.36
2023-05-23T01:10:03.472Z,48.11
2023-05-23T01:11:03.439Z,62.20
2023-05-23T01:12:03.503Z,51.29
2023-05-23T01:13:03.412Z,50.10
2023-05-23T01:14:03.446Z,47.05
2023-05-23T01:15:04.423Z,54.88
2023-05-23T01:16:03.443Z,55.56
2023-05-23T01:17:03.378Z,47.61
2023-05-23T01:18:03.417Z,42.32
2023-05-23T01:19:03.436Z,45.71
2023-05-23T01:20:03.360Z,45.66
2023-05-23T01:21:03.352Z,40.22
2023-05-23T01:22:03.346Z,45.55
2023-05-23T01:23:03.334Z,56.71
2023-05-23T01:24:03.355Z,45.03
2023-05-23T01:25:03.323Z,47.24
2023-05-23T01:26:03.311Z,56.06
2023-05-23T01:27:03.314Z,41.81
2023-05-23T01:28:03.407Z,46.48
2023-05-23T01:29:03.309Z,47.40
2023-05-23T01:30:03.272Z,50.37
2023-05-23T01:31:03.279Z,50.56
2023-05-23T01:32:03.347Z,43.81
2023-05-23T01:33:03.368Z,52.35
2023-05-23T01:34:03.245Z,45.82
2023-05-23T01:35:03.237Z,53.25
2023-05-23T01:36:03.236Z,46.37
2023-05-23T01:37:03.220Z,44.97
2023-05-23T01:38:03.280Z,47.16
2023-05-23T01:39:03.214Z,46.51
2023-05-23T01:40:03.196Z,48.63
2023-05-23T01:41:03.182Z,45.40
2023-05-23T01:42:03.211Z,45.21
2023-05-23T01:43:03.197Z,56.70
2023-05-23T01:44:03.248Z,50.19
2023-05-23T01:45:03.165Z,46.57
2023-05-23T01:46:03.220Z,60.48
2023-05-23T01:47:03.176Z,43.53
2023-05-23T01:48:03.187Z,42.86
2023-05-23T01:49:03.130Z,43.85
2023-05-23T01:50:03.127Z,49.71
2023-05-23T01:51:03.119Z,44.34
2023-05-23T01:52:03.144Z,48.79
2023-05-23T01:53:03.103Z,40.50
2023-05-23T01:54:03.098Z,46.92
2023-05-23T01:55:03.090Z,55.81
2023-05-23T01:56:03.078Z,50.45
2023-05-23T01:57:03.110Z,52.10
2023-05-23T01:58:03.074Z,44.40
2023-05-23T01:59:03.074Z,40.44
2023-05-23T02:00:03.131Z,45.56
2023-05-23T02:01:03.114Z,45.70
2023-05-23T02:02:03.070Z,56.80
2023-05-23T02:03:03.116Z,41.61
2023-05-23T02:04:03.029Z,55.67
2023-05-23T02:05:03.024Z,43.58
2023-05-23T02:06:03.042Z,46.45
2023-05-23T02:07:02.993Z,50.95
2023-05-23T02:08:02.998Z,53.19
2023-05-23T02:09:02.999Z,40.60
2023-05-23T02:10:02.980Z,44.93
2023-05-23T02:11:03.000Z,45.63
2023-05-23T02:12:02.967Z,51.08
2023-05-23T02:13:02.966Z,59.19
2023-05-23T02:14:02.944Z,43.14
2023-05-23T02:15:02.972Z,45.03
2023-05-23T02:16:03.041Z,40.19
2023-05-23T02:17:03.002Z,45.20
2023-05-23T02:18:03.000Z,47.20
2023-05-23T02:19:02.961Z,45.84
2023-05-23T02:20:02.918Z,44.99
2023-05-23T02:21:02.899Z,48.47
2023-05-23T02:22:02.890Z,47.13
2023-05-23T02:23:02.894Z,47.84
2023-05-23T02:24:02.910Z,45.27
2023-05-23T02:25:02.916Z,47.32
2023-05-23T02:26:02.843Z,48.45
2023-05-23T02:27:02.838Z,54.48
2023-05-23T02:28:02.828Z,45.04
2023-05-23T02:29:02.863Z,48.53
2023-05-23T02:30:02.848Z,48.60
2023-05-23T02:31:02.890Z,44.28
2023-05-23T02:32:02.881Z,44.29
2023-05-23T02:33:02.816Z,52.61
2023-05-23T02:34:02.814Z,44.36
2023-05-23T02:35:02.802Z,49.17
2023-05-23T02:36:02.762Z,55.33
2023-05-23T02:37:02.766Z,51.70
2023-05-23T02:38:02.752Z,48.85
2023-05-23T02:39:02.774Z,51.11
2023-05-23T02:40:02.744Z,58.23
2023-05-23T02:41:02.736Z,51.76
2023-05-23T02:42:02.726Z,51.80
2023-05-23T02:43:02.711Z,56.23
2023-05-23T02:44:02.733Z,55.07
2023-05-23T02:45:02.732Z,52.95
2023-05-23T02:46:02.724Z,50.12
2023-05-23T02:47:02.685Z,52.13
2023-05-23T02:48:02.827Z,53.56
2023-05-23T02:49:02.700Z,50.61
2023-05-23T02:50:02.666Z,52.73
2023-05-23T02:51:02.661Z,57.07
2023-05-23T02:52:02.678Z,54.70
2023-05-23T02:53:02.844Z,54.14
2023-05-23T02:54:02.636Z,51.28
2023-05-23T02:55:02.646Z,52.24
2023-05-23T02:56:02.632Z,50.46
2023-05-23T02:57:02.612Z,56.77
2023-05-23T02:58:02.640Z,56.71
2023-05-23T02:59:02.607Z,51.04
2023-05-23T03:00:02.601Z,53.39
2023-05-23T03:01:02.585Z,54.20
2023-05-23T03:02:02.627Z,55.75
2023-05-23T03:03:02.635Z,53.50
2023-05-23T03:04:02.754Z,53.28
2023-05-23T03:05:02.649Z,52.53
2023-05-23T03:06:02.612Z,55.14
2023-05-23T03:07:03.069Z,55.51
2023-05-23T03:08:02.629Z,52.63
2023-05-23T03:09:02.623Z,50.41
2023-05-23T03:10:02.624Z,52.36
2023-05-23T03:11:02.599Z,55.01
2023-05-23T03:12:02.622Z,52.61
2023-05-23T03:13:02.592Z,54.02
2023-05-23T03:14:02.572Z,51.65
2023-05-23T03:15:02.573Z,52.44
2023-05-23T03:16:02.709Z,53.99
2023-05-23T03:17:02.578Z,61.07
2023-05-23T03:18:02.557Z,54.30
2023-05-23T03:19:02.596Z,52.97
2023-05-23T03:20:02.599Z,55.62
2023-05-23T03:21:02.560Z,62.20
2023-05-23T03:22:02.521Z,54.62
2023-05-23T03:23:02.516Z,56.07
2023-05-23T03:24:02.508Z,55.09
2023-05-23T03:25:02.495Z,56.91
2023-05-23T03:26:02.505Z,55.05
2023-05-23T03:27:02.472Z,55.14
2023-05-23T03:28:02.471Z,57.19
2023-05-23T03:29:02.457Z,56.22
2023-05-23T03:30:02.478Z,58.31
2023-05-23T03:31:02.485Z,53.24
2023-05-23T03:32:02.473Z,55.14
2023-05-23T03:33:02.463Z,56.98
2023-05-23T03:34:02.445Z,57.68
2023-05-23T03:35:02.445Z,55.84
2023-05-23T03:36:02.471Z,55.00
2023-05-23T03:37:02.419Z,55.10
2023-05-23T03:38:02.411Z,56.18
2023-05-23T03:39:02.387Z,55.19
2023-05-23T03:40:02.422Z,50.79
2023-05-23T03:41:02.381Z,56.53
2023-05-23T03:42:02.355Z,55.29
2023-05-23T03:43:02.363Z,51.60
2023-05-23T03:44:02.383Z,57.05
2023-05-23T03:45:02.374Z,56.76
2023-05-23T03:46:02.394Z,53.07
2023-05-23T03:47:02.353Z,60.87
2023-05-23T03:48:02.366Z,60.33
2023-05-23T03:49:02.359Z,55.88
2023-05-23T03:50:02.320Z,58.78
2023-05-23T03:51:02.296Z,52.56
2023-05-23T03:52:02.351Z,58.75
2023-05-23T03:53:02.283Z,59.64
2023-05-23T03:54:02.300Z,54.03
2023-05-23T03:55:02.300Z,55.10
2023-05-23T03:56:02.249Z,56.03
2023-05-23T03:57:02.238Z,54.06
2023-05-23T03:58:02.258Z,54.14
2023-05-23T03:59:02.270Z,53.70
2023-05-23T04:00:02.247Z,52.89
2023-05-23T04:01:02.341Z,53.30
2023-05-23T04:02:02.261Z,52.24
2023-05-23T04:03:02.333Z,49.72
2023-05-23T04:04:02.328Z,54.29
2023-05-23T04:05:02.223Z,51.58
2023-05-23T04:06:02.232Z,52.10
2023-05-23T04:07:02.166Z,58.41
2023-05-23T04:08:02.265Z,53.34
2023-05-23T04:09:02.164Z,56.01
2023-05-23T04:10:02.164Z,53.43
2023-05-23T04:11:02.134Z,53.18
2023-05-23T04:12:02.137Z,53.71
2023-05-23T04:13:02.154Z,54.88
2023-05-23T04:14:02.109Z,55.39
2023-05-23T04:15:02.109Z,53.89
2023-05-23T04:16:02.174Z,51.33
2023-05-23T04:17:02.119Z,55.08
2023-05-23T04:18:02.140Z,50.14
2023-05-23T04:19:04.832Z,52.19
2023-05-23T04:20:02.074Z,58.84
2023-05-23T04:21:02.067Z,56.34
2023-05-23T04:22:02.010Z,54.74
2023-05-23T04:23:01.994Z,52.60
2023-05-23T04:24:02.045Z,59.16
2023-05-23T04:25:01.967Z,56.24
2023-05-23T04:26:01.933Z,51.88
2023-05-23T04:27:01.948Z,57.18
2023-05-23T04:28:01.959Z,54.17
2023-05-23T04:29:01.908Z,58.89
2023-05-23T04:30:01.909Z,53.93
2023-05-23T04:31:01.914Z,55.09
2023-05-23T04:32:01.915Z,57.40
2023-05-23T04:33:01.932Z,54.37
2023-05-23T04:34:01.868Z,56.11
2023-05-23T04:35:01.849Z,60.26
2023-05-23T04:36:01.883Z,55.70
2023-05-23T04:37:01.915Z,56.13
2023-05-23T04:38:01.879Z,53.80
2023-05-23T04:39:01.850Z,55.37
2023-05-23T04:40:01.906Z,55.56
2023-05-23T04:41:01.903Z,57.43
2023-05-23T04:42:01.816Z,55.56
2023-05-23T04:43:01.810Z,52.60
2023-05-23T04:44:01.787Z,57.27
2023-05-23T04:45:01.793Z,56.65
2023-05-23T04:46:01.802Z,56.85
2023-05-23T04:47:01.888Z,56.51
2023-05-23T04:48:01.802Z,56.69
2023-05-23T04:49:01.769Z,57.20
2023-05-23T04:50:01.924Z,57.08
2023-05-23T04:51:01.773Z,55.71
2023-05-23T04:52:01.743Z,60.01
2023-05-23T04:53:01.749Z,56.53
2023-05-23T04:54:01.723Z,55.24
2023-05-23T04:55:01.817Z,60.47
2023-05-23T04:56:01.791Z,57.54
2023-05-23T04:57:02.700Z,59.49
2023-05-23T04:58:01.702Z,58.23
2023-05-23T04:59:01.696Z,57.02
2023-05-23T05:00:01.693Z,60.39
2023-05-23T05:01:01.694Z,56.08
2023-05-23T05:02:01.677Z,53.01
2023-05-23T05:03:01.695Z,56.01
2023-05-23T05:04:01.707Z,54.07
2023-05-23T05:05:01.670Z,57.59
2023-05-23T05:06:01.623Z,55.51
2023-05-23T05:07:01.625Z,56.73
2023-05-23T05:08:01.620Z,55.07
2023-05-23T05:09:01.633Z,59.08
2023-05-23T05:10:01.625Z,54.68
2023-05-23T05:11:01.609Z,54.74
2023-05-23T05:12:01.663Z,57.66
2023-05-23T05:13:01.573Z,56.60
2023-05-23T05:14:01.621Z,54.89
2023-05-23T05:15:01.558Z,57.29
2023-05-23T05:16:01.556Z,60.42
2023-05-23T05:17:01.640Z,55.21
2023-05-23T05:18:01.626Z,57.48
2023-05-23T05:19:01.551Z,56.79
2023-05-23T05:20:01.532Z,56.14
2023-05-23T05:21:01.537Z,55.44
2023-05-23T05:22:01.536Z,57.02
2023-05-23T05:23:01.493Z,55.26
2023-05-23T05:24:01.517Z,58.03
2023-05-23T05:25:01.494Z,57.26
2023-05-23T05:26:01.476Z,56.44
2023-05-23T05:27:01.480Z,53.00
2023-05-23T05:28:01.566Z,58.36
2023-05-23T05:29:01.484Z,59.78
2023-05-23T05:30:01.440Z,56.91
2023-05-23T05:31:01.515Z,56.19
2023-05-23T05:32:01.428Z,58.19
2023-05-23T05:33:01.508Z,57.71
2023-05-23T05:34:01.428Z,57.49
2023-05-23T05:35:01.407Z,56.26
2023-05-23T05:36:01.397Z,57.52
2023-05-23T05:37:01.397Z,56.95
2023-05-23T05:38:01.418Z,58.01
2023-05-23T05:39:01.389Z,57.88
2023-05-23T05:40:01.360Z,57.36
2023-05-23T05:41:01.362Z,56.78
2023-05-23T05:42:01.369Z,56.19
2023-05-23T05:43:01.366Z,57.19
2023-05-23T05:44:01.406Z,55.57
2023-05-23T05:45:01.324Z,56.01
2023-05-23T05:46:01.333Z,58.78
2023-05-23T05:47:01.409Z,56.55
2023-05-23T05:48:01.348Z,57.17
2023-05-23T05:49:01.316Z,59.45
2023-05-23T05:50:01.310Z,55.29
2023-05-23T05:51:01.299Z,54.82
2023-05-23T05:52:01.291Z,55.19
2023-05-23T05:53:01.260Z,53.69
2023-05-23T05:54:01.260Z,59.55
2023-05-23T05:55:01.254Z,56.50
2023-05-23T05:56:01.316Z,56.13
2023-05-23T05:57:01.256Z,60.23
2023-05-23T05:58:01.233Z,57.96
2023-05-23T05:59:01.227Z,55.28
2023-05-23T06:00:01.298Z,53.71
2023-05-23T06:01:01.233Z,54.87
2023-05-23T06:02:01.226Z,53.80
2023-05-23T06:03:01.291Z,53.62
2023-05-23T06:04:01.312Z,56.60
2023-05-23T06:05:01.316Z,54.46
2023-05-23T06:06:01.199Z,56.51
2023-05-23T06:07:01.153Z,54.01
2023-05-23T06:08:01.184Z,58.37
2023-05-23T06:09:01.151Z,55.15
2023-05-23T06:10:01.176Z,54.58
2023-05-23T06:11:01.155Z,49.62
2023-05-23T06:12:01.513Z,59.91
2023-05-23T06:13:01.113Z,55.97
2023-05-23T06:14:01.110Z,54.35
2023-05-23T06:15:01.123Z,55.55
2023-05-23T06:16:01.215Z,54.40
2023-05-23T06:17:01.085Z,54.55
2023-05-23T06:18:01.103Z,53.61
2023-05-23T06:19:01.081Z,55.31
2023-05-23T06:20:01.108Z,54.00
2023-05-23T06:21:01.046Z,54.88
2023-05-23T06:22:01.050Z,52.13
2023-05-23T06:23:01.038Z,54.96
2023-05-23T06:24:01.045Z,57.78
2023-05-23T06:25:01.051Z,55.31
2023-05-23T06:26:01.019Z,54.16
2023-05-23T06:27:01.008Z,56.45
2023-05-23T06:28:00.996Z,54.58
2023-05-23T06:29:01.000Z,57.33
2023-05-23T06:30:01.013Z,56.53
2023-05-23T06:31:00.973Z,55.50
2023-05-23T06:32:01.080Z,55.81
2023-05-23T06:33:01.978Z,54.12
2023-05-23T06:34:00.991Z,56.33
2023-05-23T06:35:00.961Z,52.41
2023-05-23T06:36:00.931Z,55.32
2023-05-23T06:37:00.922Z,54.81
2023-05-23T06:38:00.914Z,54.10
2023-05-23T06:39:00.927Z,56.13
2023-05-23T06:40:00.905Z,57.15
2023-05-23T06:41:00.899Z,55.92
2023-05-23T06:42:00.882Z,60.33
2023-05-23T06:43:00.886Z,56.08
2023-05-23T06:44:00.909Z,56.88
2023-05-23T06:45:00.869Z,56.37
2023-05-23T06:46:00.871Z,56.73
2023-05-23T06:47:00.844Z,56.67
2023-05-23T06:48:01.053Z,56.61
2023-05-23T06:49:13.687Z,55.60
2023-05-23T06:50:02.842Z,56.24
2023-05-23T06:51:00.835Z,53.38
2023-05-23T06:52:00.814Z,55.72
2023-05-23T06:53:00.835Z,55.54
2023-05-23T06:54:00.784Z,54.59
2023-05-23T06:55:00.785Z,59.58
2023-05-23T06:56:00.776Z,58.74
2023-05-23T06:57:00.768Z,56.52
2023-05-23T06:58:00.781Z,54.30
2023-05-23T06:59:00.750Z,55.35
2023-05-23T07:00:00.749Z,55.17
2023-05-23T07:01:00.777Z,55.71
2023-05-23T07:02:00.771Z,52.23
2023-05-23T07:03:00.804Z,55.85
2023-05-23T07:04:00.757Z,54.41
2023-05-23T07:05:00.741Z,53.67
2023-05-23T07:06:00.742Z,55.82
2023-05-23T07:07:00.719Z,64.13
2023-05-23T07:08:00.680Z,58.18
2023-05-23T07:09:00.692Z,57.73
2023-05-23T07:10:00.662Z,60.16
2023-05-23T07:11:00.661Z,57.58
2023-05-23T07:12:00.684Z,57.25
2023-05-23T07:13:00.643Z,56.71
2023-05-23T07:14:00.630Z,55.16
2023-05-23T07:15:00.624Z,58.78
2023-05-23T07:16:00.629Z,57.81
2023-05-23T07:17:00.696Z,57.73
2023-05-23T07:18:00.646Z,58.01
2023-05-23T07:19:00.598Z,61.58
2023-05-23T07:20:00.661Z,58.15
2023-05-23T07:21:00.601Z,57.11
2023-05-23T07:22:00.638Z,56.41
2023-05-23T07:23:00.560Z,60.03
2023-05-23T07:24:00.576Z,58.05
2023-05-23T07:25:00.560Z,57.72
2023-05-23T07:26:03.160Z,58.23
2023-05-23T07:27:01.552Z,55.66
2023-05-23T07:28:00.522Z,55.30
2023-05-23T07:29:00.538Z,59.15
2023-05-23T07:30:00.535Z,57.47
2023-05-23T07:31:00.558Z,58.31
2023-05-23T07:32:00.515Z,59.82
2023-05-23T07:33:00.536Z,55.67
2023-05-23T07:34:00.487Z,57.82
2023-05-23T07:35:00.554Z,56.47
2023-05-23T07:36:00.514Z,57.74
2023-05-23T07:37:00.464Z,56.50
2023-05-23T07:38:00.453Z,55.49
2023-05-23T07:39:00.453Z,56.61
2023-05-23T07:40:00.493Z,56.79
2023-05-23T07:41:10.667Z,56.59
2023-05-23T07:42:02.420Z,57.77
2023-05-23T07:43:00.412Z,62.52
2023-05-23T07:44:00.422Z,59.80
2023-05-23T07:45:00.442Z,58.03
2023-05-23T07:46:00.437Z,59.65
2023-05-23T07:47:00.505Z,62.97
2023-05-23T07:48:00.394Z,57.27
2023-05-23T07:49:00.389Z,56.02
2023-05-23T07:50:00.392Z,59.69
2023-05-23T07:51:00.363Z,57.30
2023-05-23T07:52:00.548Z,57.62
2023-05-23T07:53:00.339Z,56.96
2023-05-23T07:54:00.364Z,56.86
2023-05-23T07:55:00.348Z,56.61
2023-05-23T07:56:00.323Z,58.97
2023-05-23T07:57:00.323Z,59.57
2023-05-23T07:58:00.293Z,58.20
2023-05-23T07:59:00.324Z,55.75
2023-05-23T08:00:00.310Z,59.61
2023-05-23T08:01:00.279Z,56.25
2023-05-23T08:02:00.311Z,53.45
2023-05-23T08:03:00.302Z,55.97
2023-05-23T08:04:00.388Z,54.39
2023-05-23T08:05:00.238Z,51.33
2023-05-23T08:06:00.232Z,56.32
2023-05-23T08:07:05.598Z,57.85
2023-05-23T08:08:02.242Z,54.88
2023-05-23T08:09:00.467Z,54.39
2023-05-23T08:10:00.203Z,56.47
2023-05-23T08:11:00.204Z,53.47
2023-05-23T08:12:00.213Z,57.53
2023-05-23T08:13:00.231Z,53.95
2023-05-23T08:14:01.355Z,56.36
2023-05-23T08:15:00.172Z,53.72
2023-05-23T08:16:00.196Z,57.89
2023-05-23T08:17:00.286Z,55.80
2023-05-23T08:18:00.261Z,50.99
2023-05-23T08:19:00.258Z,55.56
2023-05-23T08:20:00.152Z,52.41
2023-05-23T08:21:00.126Z,57.49
2023-05-23T08:22:00.149Z,56.69
2023-05-23T08:23:00.189Z,56.56
2023-05-23T08:24:00.148Z,54.92
2023-05-23T08:25:00.112Z,54.83
2023-05-23T08:26:00.105Z,56.83
2023-05-23T08:27:00.126Z,56.72
2023-05-23T08:28:00.082Z,54.84
2023-05-23T08:29:00.069Z,57.16
2023-05-23T08:30:00.065Z,53.06
2023-05-23T08:31:00.026Z,55.12
2023-05-23T08:32:00.169Z,53.44
2023-05-23T08:33:00.042Z,53.75
2023-05-23T08:34:00.020Z,55.89
2023-05-23T08:35:00.026Z,55.09
2023-05-23T08:36:00.026Z,58.12
2023-05-23T08:37:00.012Z,54.40
2023-05-23T08:37:59.990Z,56.26
2023-05-23T08:38:59.969Z,55.52
2023-05-23T08:39:59.990Z,54.37
2023-05-23T08:40:59.980Z,56.31
2023-05-23T08:41:59.989Z,59.94
2023-05-23T08:42:59.971Z,55.84
2023-05-23T08:43:59.932Z,57.71
2023-05-23T08:44:59.926Z,57.61
2023-05-23T08:46:00.011Z,57.54
2023-05-23T08:46:59.913Z,57.03
2023-05-23T08:47:59.945Z,58.24
2023-05-23T08:48:59.907Z,58.04
2023-05-23T08:49:59.909Z,54.40
2023-05-23T08:50:59.908Z,56.96
2023-05-23T08:51:59.872Z,60.70
2023-05-23T08:52:59.893Z,54.08
2023-05-23T08:53:59.861Z,55.46
2023-05-23T08:54:59.857Z,54.62
2023-05-23T08:55:59.878Z,60.13
2023-05-23T08:56:59.839Z,55.85
2023-05-23T08:57:59.838Z,59.72
2023-05-23T08:58:59.845Z,56.38
2023-05-23T08:59:59.854Z,55.49
2023-05-23T09:00:59.836Z,61.66
2023-05-23T09:01:59.922Z,56.92
2023-05-23T09:02:59.815Z,59.28
2023-05-23T09:03:59.782Z,57.26
2023-05-23T09:04:59.877Z,54.57
2023-05-23T09:05:59.823Z,55.28
2023-05-23T09:06:59.769Z,55.66
2023-05-23T09:07:59.749Z,51.18
2023-05-23T09:08:59.745Z,61.00
2023-05-23T09:09:59.782Z,55.08
2023-05-23T09:10:59.730Z,52.26
2023-05-23T09:11:59.738Z,59.39
2023-05-23T09:12:59.721Z,52.14
2023-05-23T09:13:59.756Z,55.75
2023-05-23T09:14:59.734Z,54.99
2023-05-23T09:15:59.737Z,59.40
2023-05-23T09:17:00.479Z,53.02
2023-05-23T09:17:59.713Z,51.22
2023-05-23T09:18:59.757Z,53.07
2023-05-23T09:19:59.680Z,59.36
2023-05-23T09:20:59.680Z,56.61
2023-05-23T09:21:59.664Z,54.52
2023-05-23T09:23:01.603Z,55.24
2023-05-23T09:23:59.672Z,61.73
2023-05-23T09:24:59.619Z,54.81
2023-05-23T09:25:59.625Z,54.87
2023-05-23T09:26:59.608Z,58.34
2023-05-23T09:27:59.621Z,54.77
2023-05-23T09:28:59.616Z,54.61
2023-05-23T09:29:59.589Z,52.09
2023-05-23T09:30:59.575Z,57.70
2023-05-23T09:31:59.702Z,56.19
2023-05-23T09:33:01.404Z,51.33
2023-05-23T09:33:59.553Z,53.38
2023-05-23T09:34:59.562Z,56.92
2023-05-23T09:35:59.536Z,56.39
2023-05-23T09:36:59.526Z,52.98
2023-05-23T09:37:59.544Z,54.15
2023-05-23T09:39:01.441Z,56.45
2023-05-23T09:39:59.546Z,56.16
2023-05-23T09:40:59.506Z,55.49
2023-05-23T09:41:59.496Z,54.69
2023-05-23T09:42:59.507Z,57.45
2023-05-23T09:43:59.469Z,59.63
2023-05-23T09:45:00.249Z,55.38
2023-05-23T09:45:59.455Z,56.53
2023-05-23T09:46:59.486Z,56.67
2023-05-23T09:47:59.566Z,57.05
2023-05-23T09:48:59.441Z,55.26
2023-05-23T09:49:59.424Z,54.44
2023-05-23T09:51:00.568Z,55.85
2023-05-23T09:51:59.443Z,58.16
2023-05-23T09:52:59.431Z,56.38
2023-05-23T09:53:59.408Z,55.44
2023-05-23T09:54:59.443Z,62.11
2023-05-23T09:55:59.404Z,56.57
2023-05-23T09:56:59.433Z,54.18
2023-05-23T09:57:59.418Z,60.39
2023-05-23T09:58:59.377Z,53.86
2023-05-23T09:59:59.354Z,57.36
2023-05-23T10:00:59.391Z,56.85
2023-05-23T10:01:59.387Z,55.89
2023-05-23T10:02:59.405Z,55.45
2023-05-23T10:04:00.262Z,57.79
2023-05-23T10:05:00.311Z,54.50
2023-05-23T10:05:59.332Z,59.47
2023-05-23T10:06:59.310Z,55.08
2023-05-23T10:07:59.307Z,54.37
2023-05-23T10:08:59.282Z,56.56
2023-05-23T10:09:59.432Z,55.59
2023-05-23T10:10:59.292Z,58.26
2023-05-23T10:11:59.253Z,65.25
2023-05-23T10:12:59.264Z,59.18
2023-05-23T10:13:59.232Z,57.90
2023-05-23T10:14:59.236Z,58.08
2023-05-23T10:15:59.423Z,54.30
2023-05-23T10:16:59.271Z,56.18
2023-05-23T10:17:59.278Z,53.32
2023-05-23T10:18:59.239Z,56.75
2023-05-23T10:19:59.222Z,56.92
2023-05-23T10:20:59.210Z,56.20
2023-05-23T10:21:59.188Z,54.81
2023-05-23T10:22:59.173Z,56.17
2023-05-23T10:23:59.167Z,56.32
2023-05-23T10:24:59.184Z,56.93
2023-05-23T10:25:59.153Z,58.30
2023-05-23T10:26:59.129Z,54.75
2023-05-23T10:28:00.397Z,57.31
2023-05-23T10:28:59.124Z,58.63
2023-05-23T10:29:59.159Z,56.92
2023-05-23T10:30:59.124Z,54.12
2023-05-23T10:31:59.099Z,54.41
2023-05-23T10:32:59.186Z,57.66
2023-05-23T10:33:59.112Z,57.73
2023-05-23T10:34:59.125Z,58.57
2023-05-23T10:35:59.133Z,53.28
2023-05-23T10:36:59.062Z,60.50
2023-05-23T10:37:59.048Z,58.23
2023-05-23T10:38:59.093Z,58.07
2023-05-23T10:39:59.077Z,54.84
2023-05-23T10:40:59.036Z,56.63
2023-05-23T10:41:59.017Z,55.17
2023-05-23T10:42:59.026Z,61.35
2023-05-23T10:43:59.029Z,59.75
2023-05-23T10:44:59.646Z,57.83
2023-05-23T10:45:59.063Z,58.25
2023-05-23T10:46:59.044Z,57.15
2023-05-23T10:47:59.035Z,57.63
2023-05-23T10:48:59.030Z,59.05
2023-05-23T10:49:58.959Z,58.13
2023-05-23T10:50:58.951Z,58.64
2023-05-23T10:51:58.952Z,62.59
2023-05-23T10:52:58.965Z,57.07
2023-05-23T10:53:58.925Z,56.33
2023-05-23T10:54:58.922Z,56.08
2023-05-23T10:55:58.910Z,58.84
2023-05-23T10:56:58.902Z,58.29
2023-05-23T10:57:59.933Z,56.08
2023-05-23T10:58:58.917Z,57.46
2023-05-23T10:59:58.901Z,59.43
2023-05-23T11:00:58.877Z,57.44
2023-05-23T11:01:58.915Z,57.21
2023-05-23T11:02:58.946Z,55.67
2023-05-23T11:03:58.915Z,55.32
2023-05-23T11:04:59.854Z,57.40
2023-05-23T11:05:58.838Z,57.23
2023-05-23T11:06:58.851Z,56.67
2023-05-23T11:07:58.822Z,56.07
2023-05-23T11:08:58.806Z,57.24
2023-05-23T11:09:58.799Z,56.52
2023-05-23T11:10:58.803Z,62.54
2023-05-23T11:11:58.823Z,56.28
2023-05-23T11:12:58.793Z,56.87
2023-05-23T11:13:58.775Z,57.05
2023-05-23T11:14:58.768Z,57.20
2023-05-23T11:15:58.803Z,56.31
2023-05-23T11:16:58.782Z,56.18
2023-05-23T11:17:58.817Z,55.55
2023-05-23T11:18:58.773Z,56.12
2023-05-23T11:19:58.767Z,60.72
2023-05-23T11:20:58.771Z,56.95
2023-05-23T11:21:58.717Z,55.39
2023-05-23T11:22:58.693Z,56.79
2023-05-23T11:23:58.707Z,56.42
2023-05-23T11:24:58.691Z,55.72
2023-05-23T11:25:58.707Z,54.90
2023-05-23T11:26:58.678Z,57.21
2023-05-23T11:27:58.677Z,54.52
2023-05-23T11:28:58.652Z,56.30
2023-05-23T11:29:58.648Z,58.15
2023-05-23T11:30:58.662Z,55.91
2023-05-23T11:31:58.705Z,52.79
2023-05-23T11:32:59.686Z,54.84
2023-05-23T11:33:58.622Z,57.52
2023-05-23T11:34:58.636Z,57.53
2023-05-23T11:35:58.626Z,55.92
2023-05-23T11:36:58.594Z,58.30
2023-05-23T11:37:58.588Z,58.77
2023-05-23T11:38:58.589Z,57.54
2023-05-23T11:39:58.616Z,58.40
2023-05-23T11:40:58.572Z,58.28
2023-05-23T11:41:58.567Z,56.91
2023-05-23T11:42:58.546Z,57.04
2023-05-23T11:43:58.549Z,56.61
2023-05-23T11:44:58.560Z,58.45
2023-05-23T11:45:58.557Z,56.91
2023-05-23T11:46:58.528Z,55.44
2023-05-23T11:47:58.606Z,56.77
2023-05-23T11:48:58.543Z,59.90
2023-05-23T11:49:58.532Z,56.71
2023-05-23T11:50:58.496Z,56.29
2023-05-23T11:51:58.498Z,56.48
2023-05-23T11:52:58.476Z,56.50
2023-05-23T11:53:58.494Z,56.45
2023-05-23T11:55:02.722Z,54.62
2023-05-23T11:55:59.464Z,54.55
2023-05-23T11:56:58.459Z,59.14
2023-05-23T11:57:58.437Z,56.73
2023-05-23T11:58:58.461Z,55.70
2023-05-23T11:59:58.426Z,58.98
2023-05-23T12:00:58.429Z,65.85
2023-05-23T12:01:58.400Z,68.07
2023-05-23T12:02:58.504Z,69.28
2023-05-23T12:03:58.509Z,67.63
2023-05-23T12:04:58.434Z,69.55
2023-05-23T12:05:58.383Z,74.83
2023-05-23T12:06:58.396Z,79.07
2023-05-23T12:07:58.464Z,67.85
2023-05-23T12:09:32.441Z,66.05
2023-05-23T12:09:58.350Z,66.47
2023-05-23T12:10:58.341Z,70.22
2023-05-23T12:11:58.318Z,74.73
2023-05-23T12:12:58.386Z,71.59
2023-05-23T12:13:58.310Z,65.60
2023-05-23T12:14:58.319Z,65.98
2023-05-23T12:15:58.307Z,67.97
2023-05-23T12:16:58.316Z,67.22
2023-05-23T12:17:58.347Z,67.72
2023-05-23T12:18:58.312Z,72.48
2023-05-23T12:19:58.267Z,69.11
2023-05-23T12:20:58.258Z,69.39
2023-05-23T12:21:58.281Z,74.21
2023-05-23T12:22:58.242Z,70.05
2023-05-23T12:23:58.247Z,69.59
2023-05-23T12:24:58.219Z,70.83
2023-05-23T12:25:58.244Z,70.75
2023-05-23T12:26:58.242Z,71.31
2023-05-23T12:27:58.201Z,73.10
2023-05-23T12:28:58.224Z,79.53
2023-05-23T12:29:58.177Z,70.45
2023-05-23T12:30:58.189Z,80.53
2023-05-23T12:31:58.207Z,77.59
2023-05-23T12:32:58.218Z,77.80
2023-05-23T12:33:58.180Z,75.55
2023-05-23T12:34:58.141Z,72.89
2023-05-23T12:35:58.158Z,69.73
2023-05-23T12:37:10.333Z,68.85
2023-05-23T12:38:00.122Z,70.68
2023-05-23T12:38:58.129Z,77.45
2023-05-23T12:39:58.118Z,69.44
2023-05-23T12:40:58.118Z,71.59
2023-05-23T12:41:58.084Z,57.98
2023-05-23T12:42:58.093Z,61.58
2023-05-23T12:43:58.074Z,72.76
2023-05-23T12:44:58.069Z,71.04
2023-05-23T12:45:58.101Z,71.74
2023-05-23T12:46:58.123Z,74.32
2023-05-23T12:47:58.075Z,72.29
2023-05-23T12:48:58.034Z,71.98
2023-05-23T12:49:58.039Z,75.42
2023-05-23T12:50:58.052Z,71.11
2023-05-23T12:51:58.032Z,74.49